createdAt,value
2018-02-23T00:01:34.104Z,-0.57
2018-02-23T00:04:01.709Z,-0.63
2018-02-23T00:06:29.145Z,-0.56
2018-02-23T00:08:56.589Z,-0.58
2018-02-23T00:11:24.053Z,-0.65
2018-02-23T00:13:51.689Z,-0.66
2018-02-23T00:16:19.157Z,-0.67
2018-02-23T00:18:46.597Z,-0.50
2018-02-23T00:21:14.058Z,-0.63
2018-02-23T00:23:41.526Z,-0.65
2018-02-23T00:26:08.965Z,-0.64
2018-02-23T00:28:36.425Z,-0.64
2018-02-23T00:31:03.948Z,-0.68
2018-02-23T00:33:31.392Z,-0.65
2018-02-23T00:35:58.997Z,-0.79
2018-02-23T00:38:26.444Z,-0.70
2018-02-23T00:40:53.933Z,-0.73
2018-02-23T00:43:21.372Z,-0.75
2018-02-23T00:45:48.817Z,-0.75
2018-02-23T00:48:16.300Z,-0.91
2018-02-23T00:50:43.821Z,-0.78
2018-02-23T00:53:11.273Z,-0.83
2018-02-23T00:55:38.764Z,-0.83
2018-02-23T00:58:06.212Z,-0.78
2018-02-23T01:00:33.981Z,-0.79
2018-02-23T01:03:01.449Z,-0.87
2018-02-23T01:05:28.934Z,-0.81
2018-02-23T01:07:56.376Z,-0.87
2018-02-23T01:10:23.817Z,-0.84
2018-02-23T01:12:51.497Z,-0.94
2018-02-23T01:15:18.981Z,-0.82
2018-02-23T01:17:46.441Z,-0.86
2018-02-23T01:20:13.901Z,-0.80
2018-02-23T01:22:41.349Z,-0.92
2018-02-23T01:25:08.805Z,-0.89
2018-02-23T01:27:36.264Z,-0.97
2018-02-23T01:30:03.708Z,-0.96
2018-02-23T01:32:31.156Z,-0.92
2018-02-23T01:34:58.663Z,-1.08
2018-02-23T01:37:26.108Z,-0.94
2018-02-23T01:39:53.553Z,-1.07
2018-02-23T01:42:21.014Z,-1.01
2018-02-23T01:44:48.453Z,-1.07
2018-02-23T01:47:15.911Z,-1.04
2018-02-23T01:49:43.378Z,-1.08
2018-02-23T01:52:10.864Z,-1.02
2018-02-23T01:54:38.305Z,-1.04
2018-02-23T01:57:05.773Z,-1.23
2018-02-23T01:59:34.149Z,-1.13
2018-02-23T02:02:01.593Z,-1.17
2018-02-23T02:04:29.053Z,-1.03
2018-02-23T02:06:56.518Z,-1.02
2018-02-23T02:09:23.981Z,-1.00
2018-02-23T02:11:51.712Z,-1.09
2018-02-23T02:14:19.152Z,-1.10
2018-02-23T02:16:46.614Z,-1.08
2018-02-23T02:19:14.074Z,-0.99
2018-02-23T02:21:41.523Z,-1.07
2018-02-23T02:24:08.979Z,-1.20
2018-02-23T02:26:36.466Z,-1.13
2018-02-23T02:29:03.905Z,-1.25
2018-02-23T02:31:31.345Z,-1.22
2018-02-23T02:33:59.050Z,-1.32
2018-02-23T02:36:26.498Z,-1.28
2018-02-23T02:38:53.937Z,-1.35
2018-02-23T02:41:21.481Z,-1.41
2018-02-23T02:43:48.933Z,-1.40
2018-02-23T02:46:16.707Z,-1.32
2018-02-23T02:48:44.442Z,-1.36
2018-02-23T02:51:11.886Z,-1.39
2018-02-23T02:53:39.380Z,-1.45
2018-02-23T02:56:07.152Z,-1.39
2018-02-23T02:58:34.714Z,-1.32
2018-02-23T03:01:02.181Z,-1.35
2018-02-23T03:03:29.757Z,-1.41
2018-02-23T03:05:57.202Z,-1.38
2018-02-23T03:08:24.678Z,-1.49
2018-02-23T03:10:52.153Z,-1.52
2018-02-23T03:13:19.602Z,-1.51
2018-02-23T03:15:47.045Z,-1.50
2018-02-23T03:18:14.513Z,-1.46
2018-02-23T03:20:41.968Z,-1.52
2018-02-23T03:23:09.406Z,-1.47
2018-02-23T03:25:37.098Z,-1.57
2018-02-23T03:28:04.542Z,-1.55
2018-02-23T03:30:31.988Z,-1.59
2018-02-23T03:32:59.954Z,-1.62
2018-02-23T03:35:27.393Z,-1.62
2018-02-23T03:37:54.845Z,-1.62
2018-02-23T03:40:22.481Z,-1.70
2018-02-23T03:42:49.921Z,-1.69
2018-02-23T03:45:17.549Z,-1.76
2018-02-23T03:47:45.021Z,-1.74
2018-02-23T03:50:12.464Z,-1.69
2018-02-23T03:52:39.906Z,-1.66
2018-02-23T03:55:07.565Z,-1.61
2018-02-23T03:57:35.018Z,-1.78
2018-02-23T04:00:02.461Z,-1.84
2018-02-23T04:02:30.067Z,-1.78
2018-02-23T04:04:57.576Z,-1.76
2018-02-23T04:07:25.018Z,-1.73
2018-02-23T04:09:52.487Z,-1.68
2018-02-23T04:12:19.929Z,-1.65
2018-02-23T04:14:47.365Z,-1.74
2018-02-23T04:17:16.747Z,-1.68
2018-02-23T04:19:44.177Z,-1.56
2018-02-23T04:22:11.657Z,-1.62
2018-02-23T04:24:39.134Z,-1.65
2018-02-23T04:27:06.649Z,-1.62
2018-02-23T04:29:34.095Z,-1.67
2018-02-23T04:32:02.027Z,-1.70
2018-02-23T04:34:29.508Z,-1.65
2018-02-23T04:36:56.949Z,-1.73
2018-02-23T04:39:24.449Z,-1.63
2018-02-23T04:41:51.906Z,-1.60
2018-02-23T04:44:19.350Z,-1.76
2018-02-23T04:46:46.856Z,-1.77
2018-02-23T04:49:14.441Z,-1.69
2018-02-23T04:51:41.909Z,-1.73
2018-02-23T04:54:09.573Z,-1.71
2018-02-23T04:56:37.033Z,-1.68
2018-02-23T04:59:04.477Z,-1.84
2018-02-23T05:01:32.300Z,-1.73
2018-02-23T05:03:59.740Z,-1.81
2018-02-23T05:06:27.185Z,-1.66
2018-02-23T05:08:54.660Z,-1.70
2018-02-23T05:11:22.121Z,-1.76
2018-02-23T05:13:49.557Z,-1.83
2018-02-23T05:16:17.395Z,-1.95
2018-02-23T05:18:45.134Z,-1.94
2018-02-23T05:21:12.573Z,-1.92
2018-02-23T05:23:40.189Z,-1.82
2018-02-23T05:26:07.633Z,-1.81
2018-02-23T05:28:35.121Z,-1.88
2018-02-23T05:31:03.530Z,-1.91
2018-02-23T05:33:30.972Z,-1.90
2018-02-23T05:35:58.414Z,-1.94
2018-02-23T05:38:25.990Z,-1.97
2018-02-23T05:40:53.437Z,-2.06
2018-02-23T05:43:20.916Z,-1.95
2018-02-23T05:45:48.580Z,-2.16
2018-02-23T05:48:16.022Z,-2.06
2018-02-23T05:50:43.469Z,-2.16
2018-02-23T05:53:10.941Z,-2.03
2018-02-23T05:55:38.381Z,-2.07
2018-02-23T05:58:05.821Z,-2.04
2018-02-23T06:00:33.329Z,-2.06
2018-02-23T06:03:00.792Z,-1.90
2018-02-23T06:05:28.342Z,-2.04
2018-02-23T06:07:56.229Z,-2.04
2018-02-23T06:10:23.690Z,-2.04
2018-02-23T06:12:51.184Z,-2.22
2018-02-23T06:15:18.944Z,-2.18
2018-02-23T06:17:52.150Z,-2.18
2018-02-23T06:20:25.366Z,-2.17
2018-02-23T06:22:52.829Z,-2.22
2018-02-23T06:25:20.269Z,-2.18
2018-02-23T06:27:47.972Z,-2.14
2018-02-23T06:30:15.416Z,-2.28
2018-02-23T06:32:42.889Z,-2.25
2018-02-23T06:35:10.578Z,-2.14
2018-02-23T06:37:38.033Z,-2.10
2018-02-23T06:40:06.713Z,-2.09
2018-02-23T06:42:34.197Z,-2.17
2018-02-23T06:45:01.685Z,-2.20
2018-02-23T06:47:29.132Z,-2.04
2018-02-23T06:49:56.784Z,-2.08
2018-02-23T06:52:24.256Z,-2.06
2018-02-23T06:54:51.703Z,-2.03
2018-02-23T06:57:19.344Z,-2.16
2018-02-23T06:59:46.864Z,-2.07
2018-02-23T07:02:14.309Z,-1.90
2018-02-23T07:04:41.941Z,-1.86
2018-02-23T07:07:09.395Z,-1.95
2018-02-23T07:09:36.842Z,-1.95
2018-02-23T07:12:04.488Z,-1.97
2018-02-23T07:14:31.932Z,-1.84
2018-02-23T07:16:59.381Z,-1.86
2018-02-23T07:19:26.890Z,-1.81
2018-02-23T07:21:54.336Z,-1.82
2018-02-23T07:24:21.778Z,-1.87
2018-02-23T07:26:49.806Z,-1.72
2018-02-23T07:29:17.245Z,-1.70
2018-02-23T07:31:44.685Z,-1.64
2018-02-23T07:34:12.477Z,-1.60
2018-02-23T07:36:39.936Z,-1.56
2018-02-23T07:39:07.393Z,-1.51
2018-02-23T07:41:34.889Z,-1.52
2018-02-23T07:44:02.332Z,-1.26
2018-02-23T07:46:29.774Z,-1.26
2018-02-23T07:48:57.252Z,-1.30
2018-02-23T07:51:24.698Z,-1.26
2018-02-23T07:53:52.146Z,-1.26
2018-02-23T07:56:19.833Z,-1.17
2018-02-23T07:58:47.274Z,-1.07
2018-02-23T08:01:14.721Z,-1.04
2018-02-23T08:03:42.373Z,-1.11
2018-02-23T08:06:09.826Z,-0.98
2018-02-23T08:08:37.273Z,-1.01
2018-02-23T08:11:04.765Z,-0.93
2018-02-23T08:13:32.649Z,-0.92
2018-02-23T08:16:00.094Z,-0.86
2018-02-23T08:18:27.585Z,-0.92
2018-02-23T08:20:55.059Z,-0.88
2018-02-23T08:23:22.506Z,-1.05
2018-02-23T08:25:50.086Z,-0.97
2018-02-23T08:28:18.753Z,-0.85
2018-02-23T08:30:49.160Z,-0.88
2018-02-23T08:33:16.801Z,-0.76
2018-02-23T08:35:44.290Z,-0.79
2018-02-23T08:38:11.765Z,-0.73
2018-02-23T08:40:39.228Z,-0.80
2018-02-23T08:43:06.678Z,-0.74
2018-02-23T08:45:34.118Z,-0.78
2018-02-23T08:48:01.581Z,-0.67
2018-02-23T08:50:29.037Z,-0.43
2018-02-23T08:52:56.519Z,-0.54
2018-02-23T08:55:23.997Z,-0.58
2018-02-23T08:57:51.443Z,-0.53
2018-02-23T09:00:21.041Z,-0.45
2018-02-23T09:02:48.507Z,-0.54
2018-02-23T09:05:15.956Z,-0.44
2018-02-23T09:07:43.410Z,-0.41
2018-02-23T09:10:10.881Z,-0.31
2018-02-23T09:12:38.380Z,-0.32
2018-02-23T09:15:05.841Z,-0.27
2018-02-23T09:17:33.318Z,-0.24
2018-02-23T09:20:00.781Z,-0.23
2018-02-23T09:22:28.240Z,-0.27
2018-02-23T09:24:55.708Z,-0.20
2018-02-23T09:27:23.158Z,-0.21
2018-02-23T09:29:50.608Z,0.06
2018-02-23T09:32:29.832Z,0.06
2018-02-23T09:34:57.312Z,0.06
2018-02-23T09:37:24.957Z,-0.12
2018-02-23T09:39:52.421Z,-0.10
2018-02-23T09:42:19.867Z,0.12
2018-02-23T09:44:47.337Z,0.29
2018-02-23T09:47:14.780Z,0.23
2018-02-23T09:49:42.327Z,0.20
2018-02-23T09:52:09.769Z,0.14
2018-02-23T09:54:37.215Z,0.02
2018-02-23T09:57:04.673Z,0.25
2018-02-23T09:59:32.121Z,0.49
2018-02-23T10:01:59.826Z,0.46
2018-02-23T10:04:27.277Z,0.44
2018-02-23T10:06:54.721Z,0.55
2018-02-23T10:09:23.201Z,0.82
2018-02-23T10:11:50.641Z,0.56
2018-02-23T10:14:18.110Z,0.40
2018-02-23T10:16:45.566Z,0.63
2018-02-23T10:19:13.011Z,1.01
2018-02-23T10:21:40.499Z,0.73
2018-02-23T10:24:07.944Z,0.80
2018-02-23T10:26:35.715Z,0.88
2018-02-23T10:29:03.174Z,0.70
2018-02-23T10:31:30.616Z,0.80
2018-02-23T10:33:58.112Z,0.87
2018-02-23T10:36:26.074Z,1.03
2018-02-23T10:38:53.551Z,0.85
2018-02-23T10:41:21.021Z,1.03
2018-02-23T10:43:48.480Z,0.96
2018-02-23T10:46:15.960Z,0.91
2018-02-23T10:48:43.423Z,1.14
2018-02-23T10:51:10.873Z,1.14
2018-02-23T10:53:38.533Z,1.11
2018-02-23T10:56:06.499Z,1.17
2018-02-23T10:58:33.962Z,1.06
2018-02-23T11:01:01.507Z,1.25
2018-02-23T11:03:28.953Z,1.22
2018-02-23T11:05:56.418Z,1.38
2018-02-23T11:08:24.266Z,1.33
2018-02-23T11:10:51.725Z,1.67
2018-02-23T11:13:19.206Z,1.42
2018-02-23T11:15:46.681Z,1.45
2018-02-23T11:18:14.129Z,1.32
2018-02-23T11:20:41.585Z,1.51
2018-02-23T11:23:09.050Z,1.59
2018-02-23T11:25:36.521Z,1.67
2018-02-23T11:28:04.033Z,1.59
2018-02-23T11:30:31.493Z,1.72
2018-02-23T11:32:58.941Z,1.91
2018-02-23T11:35:26.414Z,1.69
2018-02-23T11:37:53.882Z,1.79
2018-02-23T11:40:21.361Z,1.90
2018-02-23T11:42:48.906Z,1.67
2018-02-23T11:45:16.365Z,1.70
2018-02-23T11:47:43.845Z,1.70
2018-02-23T11:50:11.293Z,1.94
2018-02-23T11:52:38.937Z,1.88
2018-02-23T11:55:06.459Z,1.93
2018-02-23T11:57:39.807Z,1.86
2018-02-23T12:00:07.249Z,1.84
2018-02-23T12:02:34.697Z,1.98
2018-02-23T12:05:02.161Z,2.04
2018-02-23T12:07:29.640Z,2.18
2018-02-23T12:09:57.365Z,2.07
2018-02-23T12:12:24.821Z,1.97
2018-02-23T12:14:52.264Z,2.30
2018-02-23T12:17:19.733Z,2.35
2018-02-23T12:19:47.394Z,2.22
2018-02-23T12:22:15.221Z,2.02
2018-02-23T12:24:42.665Z,2.10
2018-02-23T12:27:10.111Z,2.10
2018-02-23T12:29:37.577Z,2.08
2018-02-23T12:32:05.037Z,2.00
2018-02-23T12:34:32.988Z,2.12
2018-02-23T12:37:00.508Z,2.03
2018-02-23T12:39:27.953Z,2.27
2018-02-23T12:41:55.432Z,2.38
2018-02-23T12:44:22.896Z,2.41
2018-02-23T12:46:50.845Z,2.34
2018-02-23T12:49:18.295Z,2.48
2018-02-23T12:51:45.801Z,2.51
2018-02-23T12:54:13.278Z,2.29
2018-02-23T12:56:43.050Z,2.32
2018-02-23T12:59:12.286Z,2.29
2018-02-23T13:01:39.828Z,2.46
2018-02-23T13:04:07.783Z,2.32
2018-02-23T13:06:35.285Z,2.53
2018-02-23T13:09:02.831Z,2.55
2018-02-23T13:11:30.542Z,2.59
2018-02-23T13:13:58.025Z,2.67
2018-02-23T13:16:29.510Z,2.96
2018-02-23T13:18:57.358Z,2.81
2018-02-23T13:21:25.825Z,2.63
2018-02-23T13:23:53.305Z,2.51
2018-02-23T13:26:20.773Z,2.49
2018-02-23T13:28:48.313Z,2.68
2018-02-23T13:31:15.961Z,2.78
2018-02-23T13:33:43.413Z,2.77
2018-02-23T13:36:10.898Z,2.77
2018-02-23T13:38:38.358Z,2.67
2018-02-23T13:41:12.778Z,2.81
2018-02-23T13:43:40.290Z,2.66
2018-02-23T13:46:07.754Z,2.72
2018-02-23T13:48:35.252Z,2.86
2018-02-23T13:51:02.753Z,2.59
2018-02-23T13:53:46.177Z,2.73
2018-02-23T13:56:13.763Z,2.62
2018-02-23T13:58:41.214Z,2.75
2018-02-23T14:01:08.942Z,2.59
2018-02-23T14:03:36.402Z,2.75
2018-02-23T14:06:03.863Z,2.85
2018-02-23T14:08:31.542Z,2.93
2018-02-23T14:10:59.015Z,2.95
2018-02-23T14:13:26.461Z,3.06
2018-02-23T14:15:53.947Z,3.04
2018-02-23T14:18:21.400Z,2.94
2018-02-23T14:20:48.854Z,2.99
2018-02-23T14:23:16.342Z,2.95
2018-02-23T14:25:43.791Z,2.99
2018-02-23T14:28:11.374Z,3.00
2018-02-23T14:30:38.854Z,2.97
2018-02-23T14:33:06.351Z,2.94
2018-02-23T14:35:33.922Z,3.01
2018-02-23T14:38:01.384Z,3.23
2018-02-23T14:40:28.858Z,3.03
2018-02-23T14:42:56.361Z,2.95
2018-02-23T14:45:23.801Z,2.84
2018-02-23T14:47:51.293Z,2.96
2018-02-23T14:50:30.929Z,2.98
2018-02-23T14:52:58.593Z,3.03
2018-02-23T14:55:26.056Z,3.04
2018-02-23T14:57:53.538Z,2.91
2018-02-23T15:00:21.001Z,2.80
2018-02-23T15:02:48.617Z,2.82
2018-02-23T15:05:16.122Z,2.97
2018-02-23T15:07:43.569Z,2.75
2018-02-23T15:10:11.022Z,2.89
2018-02-23T15:12:38.512Z,2.87
2018-02-23T15:15:05.957Z,2.91
2018-02-23T15:17:33.609Z,2.84
2018-02-23T15:20:01.085Z,2.79
2018-02-23T15:22:28.528Z,2.69
2018-02-23T15:24:56.007Z,2.77
2018-02-23T15:27:23.526Z,2.84
2018-02-23T15:29:51.249Z,2.92
2018-02-23T15:32:38.601Z,2.72
2018-02-23T15:35:06.461Z,2.75
2018-02-23T15:37:33.921Z,2.72
2018-02-23T15:40:01.373Z,2.71
2018-02-23T15:42:28.857Z,2.86
2018-02-23T15:44:56.305Z,2.68
2018-02-23T15:47:35.229Z,2.68
2018-02-23T15:53:09.854Z,2.73
2018-02-23T15:55:37.305Z,2.71
2018-02-23T16:01:07.593Z,2.66
2018-02-23T16:03:35.073Z,2.64
2018-02-23T16:06:02.521Z,2.55
2018-02-23T16:08:30.001Z,2.58
2018-02-23T16:10:57.471Z,2.52
2018-02-23T16:13:24.933Z,2.44
2018-02-23T16:15:52.667Z,2.37
2018-02-23T16:18:20.122Z,2.38
2018-02-23T16:20:47.566Z,2.40
2018-02-23T16:23:15.041Z,2.42
2018-02-23T16:25:42.514Z,2.36
2018-02-23T16:28:10.001Z,2.30
2018-02-23T16:30:37.472Z,2.37
2018-02-23T16:33:04.961Z,2.30
2018-02-23T16:35:32.429Z,2.33
2018-02-23T16:37:59.886Z,2.22
2018-02-23T16:40:27.357Z,2.16
2018-02-23T16:42:54.805Z,2.12
2018-02-23T16:45:22.294Z,2.08
2018-02-23T16:47:50.080Z,1.96
2018-02-23T16:50:17.565Z,1.99
2018-02-23T16:52:45.274Z,1.86
2018-02-23T16:55:12.736Z,1.84
2018-02-23T16:57:40.180Z,1.67
2018-02-23T17:00:07.648Z,1.75
2018-02-23T17:02:35.629Z,1.70
2018-02-23T17:05:03.116Z,1.61
2018-02-23T17:07:30.573Z,1.60
2018-02-23T17:09:58.021Z,1.64
2018-02-23T17:12:25.517Z,1.66
2018-02-23T17:14:52.965Z,1.63
2018-02-23T17:17:20.409Z,1.51
2018-02-23T17:19:47.889Z,1.46
2018-02-23T17:22:15.374Z,1.38
2018-02-23T17:24:42.813Z,1.47
2018-02-23T17:27:10.471Z,1.27
2018-02-23T17:29:37.917Z,1.24
2018-02-23T17:32:05.396Z,1.23
2018-02-23T17:34:32.892Z,1.25
2018-02-23T17:37:00.341Z,1.21
2018-02-23T17:39:27.813Z,1.10
2018-02-23T17:41:55.278Z,0.80
2018-02-23T17:44:22.771Z,0.82
2018-02-23T17:46:50.221Z,0.76
2018-02-23T17:49:18.024Z,0.81
2018-02-23T17:51:45.541Z,0.84
2018-02-23T17:54:13.025Z,0.78
2018-02-23T17:56:40.501Z,0.48
2018-02-23T17:59:08.177Z,0.55
2018-02-23T18:01:35.717Z,0.56
2018-02-23T18:04:03.174Z,0.65
2018-02-23T18:06:30.688Z,0.53
2018-02-23T18:08:58.101Z,0.50
2018-02-23T18:11:25.582Z,0.49
2018-02-23T18:13:53.101Z,0.67
2018-02-23T18:16:20.574Z,0.59
2018-02-23T18:18:48.059Z,0.54
2018-02-23T18:21:15.702Z,0.43
2018-02-23T18:23:43.581Z,0.44
2018-02-23T18:26:11.038Z,0.53
2018-02-23T18:28:38.491Z,0.52
2018-02-23T18:31:05.967Z,0.43
2018-02-23T18:33:33.429Z,0.31
2018-02-23T18:36:01.277Z,0.31
2018-02-23T18:38:28.729Z,0.33
2018-02-23T18:40:56.185Z,0.26
2018-02-23T18:43:23.665Z,0.33
2018-02-23T18:45:51.148Z,0.24
2018-02-23T18:48:18.630Z,0.25
2018-02-23T18:50:46.072Z,0.22
2018-02-23T18:53:13.521Z,0.24
2018-02-23T18:55:40.989Z,0.15
2018-02-23T18:58:08.442Z,0.17
2018-02-23T19:00:36.885Z,0.20
2018-02-23T19:03:04.325Z,0.13
2018-02-23T19:05:31.780Z,0.17
2018-02-23T19:07:59.267Z,0.04
2018-02-23T19:10:26.720Z,0.00
2018-02-23T19:12:55.058Z,0.05
2018-02-23T19:15:22.652Z,-0.01
2018-02-23T19:17:50.153Z,-0.04
2018-02-23T19:20:17.629Z,-0.02
2018-02-23T19:22:45.117Z,-0.13
2018-02-23T19:25:12.711Z,-0.23
2018-02-23T19:27:40.096Z,-0.10
2018-02-23T19:30:07.557Z,-0.28
2018-02-23T19:32:35.070Z,-0.30
2018-02-23T19:35:02.541Z,-0.28
2018-02-23T19:37:30.060Z,-0.23
2018-02-23T19:39:57.523Z,-0.30
2018-02-23T19:42:24.990Z,-0.26
2018-02-23T19:44:52.506Z,-0.31
2018-02-23T19:47:19.957Z,-0.29
2018-02-23T19:49:47.801Z,-0.41
2018-02-23T19:52:15.284Z,-0.43
2018-02-23T19:54:42.743Z,-0.32
2018-02-23T19:57:10.283Z,-0.49
2018-02-23T19:59:37.896Z,-0.44
2018-02-23T20:02:05.574Z,-0.48
2018-02-23T20:04:33.063Z,-0.52
2018-02-23T20:07:00.520Z,-0.51
2018-02-23T20:09:28.017Z,-0.50
2018-02-23T20:11:55.689Z,-0.60
2018-02-23T20:14:23.277Z,-0.71
2018-02-23T20:16:51.368Z,-0.70
2018-02-23T20:19:18.817Z,-0.71
2018-02-23T20:21:46.339Z,-0.66
2018-02-23T20:24:13.798Z,-0.76
2018-02-23T20:26:41.607Z,-0.77
2018-02-23T20:29:09.062Z,-0.75
2018-02-23T20:31:36.553Z,-0.71
2018-02-23T20:34:04.045Z,-0.71
2018-02-23T20:36:31.514Z,-0.85
2018-02-23T20:38:59.158Z,-0.83
2018-02-23T20:41:26.663Z,-0.82
2018-02-23T20:43:54.083Z,-0.83
2018-02-23T20:46:21.565Z,-0.83
2018-02-23T20:48:49.025Z,-0.86
2018-02-23T20:51:16.899Z,-0.87
2018-02-23T20:53:44.358Z,-0.90
2018-02-23T20:56:11.813Z,-0.86
2018-02-23T20:58:39.431Z,-0.94
2018-02-23T21:01:06.892Z,-0.96
2018-02-23T21:03:34.657Z,-0.93
2018-02-23T21:06:02.117Z,-1.00
2018-02-23T21:08:29.573Z,-0.98
2018-02-23T21:10:57.179Z,-1.03
2018-02-23T21:13:24.700Z,-1.01
2018-02-23T21:15:52.377Z,-1.06
2018-02-23T21:18:19.850Z,-1.08
2018-02-23T21:20:47.304Z,-1.09
2018-02-23T21:23:14.795Z,-1.15
2018-02-23T21:25:42.275Z,-1.12
2018-02-23T21:28:09.775Z,-1.16
2018-02-23T21:30:37.225Z,-1.20
2018-02-23T21:33:04.693Z,-1.22
2018-02-23T21:35:32.173Z,-1.23
2018-02-23T21:37:59.625Z,-1.30
2018-02-23T21:40:27.163Z,-1.30
2018-02-23T21:42:54.620Z,-1.30
2018-02-23T21:45:22.096Z,-1.31
2018-02-23T21:47:49.570Z,-1.28
2018-02-23T21:50:17.037Z,-1.33
2018-02-23T21:52:44.682Z,-1.38
2018-02-23T21:55:12.133Z,-1.44
2018-02-23T21:57:39.867Z,-1.44
2018-02-23T22:00:07.341Z,-1.44
2018-02-23T22:02:34.788Z,-1.47
2018-02-23T22:05:02.341Z,-1.44
2018-02-23T22:07:29.794Z,-1.52
2018-02-23T22:09:57.241Z,-1.51
2018-02-23T22:12:24.717Z,-1.55
2018-02-23T22:14:52.168Z,-1.58
2018-02-23T22:17:19.655Z,-1.54
2018-02-23T22:19:47.118Z,-1.68
2018-02-23T22:22:14.574Z,-1.67
2018-02-23T22:24:42.052Z,-1.65
2018-02-23T22:27:09.524Z,-1.68
2018-02-23T22:29:37.017Z,-1.69
2018-02-23T22:32:04.469Z,-1.75
2018-02-23T22:34:31.953Z,-1.74
2018-02-23T22:36:59.432Z,-1.77
2018-02-23T22:39:26.901Z,-1.79
2018-02-23T22:41:54.381Z,-1.86
2018-02-23T22:44:21.836Z,-1.81
2018-02-23T22:46:49.294Z,-1.89
2018-02-23T22:49:16.770Z,-1.94
2018-02-23T22:51:44.222Z,-1.91
2018-02-23T22:54:11.725Z,-1.93
2018-02-23T22:56:39.389Z,-1.86
2018-02-23T22:59:06.845Z,-1.89
2018-02-23T23:01:34.345Z,-1.90
2018-02-23T23:04:01.806Z,-1.95
2018-02-23T23:06:29.541Z,-1.96
2018-02-23T23:08:56.989Z,-2.00
2018-02-23T23:11:24.445Z,-1.98
2018-02-23T23:13:51.917Z,-1.99
2018-02-23T23:16:19.365Z,-2.08
2018-02-23T23:18:47.046Z,-2.06
2018-02-23T23:21:14.556Z,-2.15
2018-02-23T23:23:42.049Z,-2.18
2018-02-23T23:26:09.522Z,-2.25
2018-02-23T23:28:36.972Z,-2.24
2018-02-23T23:31:04.685Z,-2.26
2018-02-23T23:33:32.132Z,-2.25
2018-02-23T23:35:59.604Z,-2.25
2018-02-23T23:38:27.110Z,-2.34
2018-02-23T23:40:54.557Z,-2.35
2018-02-23T23:43:22.659Z,-2.34
2018-02-23T23:45:50.276Z,-2.40
2018-02-23T23:48:17.742Z,-2.35
2018-02-23T23:50:45.231Z,-2.43
2018-02-23T23:53:12.724Z,-2.48
2018-02-23T23:55:40.289Z,-2.42
2018-02-23T23:58:07.743Z,-2.50
